Charter Quote
Worldwide +44-20-3874-8091 Call
Select Language Lang
SAFETY RELIABILITY EXPERIENCE

Lombok International Airport (WADL) - Jet Charter Services

AIRPORT INFORMATION
ICAOWADL
IATALOP
LOCATIONMataram, Indonesia
FACILITY TYPEAIRPORT
Runway Length (ft) Width (ft) Surface Type Elevation (ft)
13/31 9000 150 ASPH 319.00000

At Paramount Business Jets you can hire chartered private jets to and from Lombok International Airport with as little as 4 hours of notice. All flights booked via Paramount Business Jets are operated by certified direct air carriers that meet and exceed the FAA part 135 and 121 protocol or a foreign equivalent safety authority. Furthermore, Paramount Business Jets subscribes to ARGUS for their third party safety checks of operators, aircraft, and crews prior each and every flight to and from Lombok International Airport and worldwide.

  • Quote a trip using Lombok International Airport or call us 24/7 - 365 days a year at +44-20-3874-8091.
Questions? Call +44-20-3874-8091

METAR Weather Data at Lombok International Airport, WADL, LOP

STATIONWADL
OBSERVEDWed Jan 23, 21:30 UTC
NOWWed Jan 23, 21:52 UTC
AGE22 min ago
WINDNW at 10 mph
VISIBILITY10 miles
CLOUDSmostly cloudy
TEMP79°F (26°C)
DEWPT72°F (22°C)
HUMIDITY79%
BAROMETER1008 hPa (29.77 in Hg)
METARWADL 232130Z 31009KT 6000 BKN016 26/22 Q1008 NOSIG

Call us on +44-20-3874-8091 (24 Hours) to Hire a Private Jet or Get a Quick Quote.

Find Airports Near any Location

Processing
...